createdAt,value
2022-12-18T00:01:37.402Z,0.50
2022-12-18T00:04:07.498Z,0.30
2022-12-18T00:06:35.601Z,0.30
2022-12-18T00:09:03.781Z,0.40
2022-12-18T00:11:31.534Z,0.40
2022-12-18T00:14:00.140Z,0.40
2022-12-18T00:16:28.236Z,0.30
2022-12-18T00:18:57.401Z,0.40
2022-12-18T00:21:24.011Z,0.40
2022-12-18T00:23:51.426Z,0.40
2022-12-18T00:26:20.924Z,0.50
2022-12-18T00:28:47.698Z,0.30
2022-12-18T00:31:18.298Z,0.43
2022-12-18T00:33:45.130Z,0.32
2022-12-18T00:36:17.353Z,0.40
2022-12-18T00:38:44.877Z,0.40
2022-12-18T00:41:13.243Z,0.40
2022-12-18T00:43:41.086Z,0.40
2022-12-18T00:46:07.894Z,0.40
2022-12-18T00:48:34.474Z,0.30
2022-12-18T00:51:01.126Z,0.40
2022-12-18T00:53:27.670Z,0.40
2022-12-18T00:55:54.228Z,0.40
2022-12-18T00:58:37.132Z,0.40
2022-12-18T01:01:05.826Z,0.50
2022-12-18T01:03:32.476Z,0.37
2022-12-18T01:05:59.000Z,0.50
2022-12-18T01:08:25.749Z,0.40
2022-12-18T01:10:52.456Z,0.40
2022-12-18T01:13:18.987Z,0.40
2022-12-18T01:15:51.880Z,0.40
2022-12-18T01:18:18.424Z,0.40
2022-12-18T01:20:44.953Z,0.40
2022-12-18T01:23:11.549Z,0.40
2022-12-18T01:25:39.055Z,0.50
2022-12-18T01:28:05.848Z,0.30
2022-12-18T01:30:32.356Z,0.40
2022-12-18T01:32:58.859Z,0.50
2022-12-18T01:35:25.400Z,0.50
2022-12-18T01:37:55.721Z,0.40
2022-12-18T01:40:22.744Z,0.30
2022-12-18T01:42:58.391Z,0.40
2022-12-18T01:45:30.389Z,0.40
2022-12-18T01:48:02.799Z,0.40
2022-12-18T01:50:42.657Z,0.40
2022-12-18T01:53:14.888Z,0.40
2022-12-18T01:55:47.366Z,0.30
2022-12-18T01:58:14.718Z,0.40
2022-12-18T02:00:41.386Z,0.30
2022-12-18T02:03:08.104Z,0.37
2022-12-18T02:05:46.269Z,0.30
2022-12-18T02:08:34.544Z,0.40
2022-12-18T02:11:17.646Z,0.30
2022-12-18T02:14:10.982Z,0.40
2022-12-18T02:16:40.512Z,0.50
2022-12-18T02:19:25.865Z,0.40
2022-12-18T02:22:15.364Z,0.40
2022-12-18T02:25:16.999Z,0.40
2022-12-18T02:27:46.629Z,0.33
2022-12-18T02:30:14.150Z,0.47
2022-12-18T02:32:46.949Z,0.40
2022-12-18T02:35:19.203Z,0.40
2022-12-18T02:37:47.486Z,0.40
2022-12-18T02:40:16.439Z,0.40
2022-12-18T02:42:43.033Z,0.40
2022-12-18T02:45:10.032Z,0.40
2022-12-18T02:47:42.945Z,0.40
2022-12-18T02:50:46.028Z,0.50
2022-12-18T02:53:12.485Z,0.30
2022-12-18T02:56:04.929Z,0.40
2022-12-18T02:58:58.625Z,0.40
2022-12-18T03:01:46.546Z,0.30
2022-12-18T03:04:24.166Z,0.40
2022-12-18T03:06:56.674Z,0.40
2022-12-18T03:09:30.448Z,0.33
2022-12-18T03:12:02.804Z,0.30
2022-12-18T03:14:32.946Z,0.40
2022-12-18T03:17:06.692Z,0.30
2022-12-18T03:19:34.136Z,0.40
2022-12-18T03:22:04.750Z,0.30
2022-12-18T03:24:34.055Z,0.40
2022-12-18T03:27:06.404Z,0.40
2022-12-18T03:29:50.920Z,0.40
2022-12-18T03:32:32.651Z,0.40
2022-12-18T03:35:03.628Z,0.30
2022-12-18T03:39:56.597Z,0.40
2022-12-18T03:42:31.108Z,0.40
2022-12-18T03:45:03.478Z,0.40
2022-12-18T03:47:42.008Z,0.40
2022-12-18T03:50:25.609Z,0.40
2022-12-18T03:53:29.711Z,0.40
2022-12-18T03:55:57.233Z,0.37
2022-12-18T03:58:26.340Z,0.40
2022-12-18T04:00:55.316Z,0.30
2022-12-18T04:03:26.468Z,0.40
2022-12-18T04:05:56.267Z,0.30
2022-12-18T04:08:24.557Z,0.40
2022-12-18T04:10:51.090Z,0.40
2022-12-18T04:13:25.963Z,0.40
2022-12-18T04:15:52.648Z,0.40
2022-12-18T04:18:19.368Z,0.43
2022-12-18T04:20:45.977Z,0.37
2022-12-18T04:23:12.472Z,0.40
2022-12-18T04:25:38.975Z,0.40
2022-12-18T04:28:05.582Z,0.40
2022-12-18T04:30:32.138Z,0.40
2022-12-18T04:32:58.713Z,0.40
2022-12-18T04:35:25.282Z,0.30
2022-12-18T04:37:51.790Z,0.30
2022-12-18T04:40:18.396Z,0.40
2022-12-18T04:42:45.090Z,0.30
2022-12-18T04:45:11.700Z,0.33
2022-12-18T04:47:38.282Z,0.30
2022-12-18T04:50:05.435Z,0.37
2022-12-18T04:52:31.938Z,0.40
2022-12-18T04:54:58.473Z,0.40
2022-12-18T04:57:25.116Z,0.30
2022-12-18T04:59:51.665Z,0.40
2022-12-18T05:02:18.237Z,0.33
2022-12-18T05:04:44.891Z,0.40
2022-12-18T05:07:11.454Z,0.40
2022-12-18T05:09:38.048Z,0.40
2022-12-18T05:12:04.753Z,0.40
2022-12-18T05:14:31.257Z,0.40
2022-12-18T05:17:00.818Z,0.40
2022-12-18T05:19:27.777Z,0.40
2022-12-18T05:21:54.320Z,0.40
2022-12-18T05:24:20.879Z,0.40
2022-12-18T05:26:47.597Z,0.40
2022-12-18T05:29:14.169Z,0.40
2022-12-18T05:31:41.150Z,0.30
2022-12-18T05:34:09.584Z,0.40
2022-12-18T05:36:37.159Z,0.30
2022-12-18T05:39:03.951Z,0.33
2022-12-18T05:41:30.986Z,0.40
2022-12-18T05:43:57.553Z,0.40
2022-12-18T05:46:24.135Z,0.40
2022-12-18T05:48:50.996Z,0.40
2022-12-18T05:51:19.881Z,0.40
2022-12-18T05:53:46.822Z,0.40
2022-12-18T05:56:20.468Z,0.40
2022-12-18T05:58:47.830Z,0.40
2022-12-18T06:01:21.429Z,0.50
2022-12-18T06:03:48.259Z,0.40
2022-12-18T06:06:18.896Z,0.43
2022-12-18T06:08:46.809Z,0.30
2022-12-18T06:11:16.682Z,0.40
2022-12-18T06:13:43.218Z,0.40
2022-12-18T06:16:09.822Z,0.40
2022-12-18T06:18:38.041Z,0.40
2022-12-18T06:21:04.812Z,0.40
2022-12-18T06:23:31.369Z,0.40
2022-12-18T06:25:57.935Z,0.37
2022-12-18T06:28:24.509Z,0.40
2022-12-18T06:30:51.057Z,0.30
2022-12-18T06:33:17.913Z,0.40
2022-12-18T06:35:44.465Z,0.30
2022-12-18T06:38:11.013Z,0.40
2022-12-18T06:40:38.816Z,0.40
2022-12-18T06:43:05.521Z,0.40
2022-12-18T06:45:32.105Z,0.40
2022-12-18T06:47:58.672Z,0.40
2022-12-18T06:50:25.760Z,0.40
2022-12-18T06:52:52.357Z,0.40
2022-12-18T06:55:19.136Z,0.40
2022-12-18T06:57:45.685Z,0.40
2022-12-18T07:00:12.503Z,0.30
2022-12-18T07:02:39.162Z,0.30
2022-12-18T07:05:10.728Z,0.40
2022-12-18T07:07:37.759Z,0.40
2022-12-18T07:10:04.708Z,0.40
2022-12-18T07:12:31.249Z,0.40
2022-12-18T07:14:57.831Z,0.40
2022-12-18T07:17:24.429Z,0.40
2022-12-18T07:19:51.020Z,0.33
2022-12-18T07:22:17.603Z,0.40
2022-12-18T07:24:45.258Z,0.37
2022-12-18T07:27:11.801Z,0.30
2022-12-18T07:29:38.376Z,0.50
2022-12-18T07:32:06.242Z,0.40
2022-12-18T07:34:32.950Z,0.40
2022-12-18T07:36:59.496Z,0.40
2022-12-18T07:39:26.058Z,0.30
2022-12-18T07:41:52.668Z,0.40
2022-12-18T07:44:19.185Z,0.40
2022-12-18T07:46:45.721Z,0.40
2022-12-18T07:49:12.253Z,0.40
2022-12-18T07:51:38.844Z,0.30
2022-12-18T07:54:05.448Z,0.30
2022-12-18T07:56:31.962Z,0.40
2022-12-18T07:58:59.760Z,0.30
2022-12-18T08:01:27.294Z,0.40
2022-12-18T08:03:54.104Z,0.37
2022-12-18T08:06:22.448Z,0.40
2022-12-18T08:08:52.224Z,0.30
2022-12-18T08:11:18.758Z,0.30
2022-12-18T08:13:46.249Z,0.40
2022-12-18T08:16:12.794Z,0.40
2022-12-18T08:18:39.447Z,0.40
2022-12-18T08:21:12.978Z,0.40
2022-12-18T08:23:43.077Z,0.40
2022-12-18T08:26:11.183Z,0.30
2022-12-18T08:28:37.704Z,0.40
2022-12-18T08:31:05.060Z,0.40
2022-12-18T08:33:32.269Z,0.40
2022-12-18T08:36:02.690Z,0.33
2022-12-18T08:38:29.285Z,0.30
2022-12-18T08:41:07.484Z,0.37
2022-12-18T08:43:34.192Z,0.30
2022-12-18T08:46:00.795Z,0.40
2022-12-18T08:48:27.390Z,0.30
2022-12-18T08:50:58.814Z,0.30
2022-12-18T08:53:25.526Z,0.40
2022-12-18T08:55:52.302Z,0.30
2022-12-18T08:58:19.294Z,0.30
2022-12-18T09:00:46.231Z,0.30
2022-12-18T09:03:17.769Z,0.30
2022-12-18T09:05:46.065Z,0.30
2022-12-18T09:08:19.177Z,0.30
2022-12-18T09:10:47.749Z,0.30
2022-12-18T09:13:15.206Z,0.30
2022-12-18T09:15:46.817Z,0.30
2022-12-18T09:18:14.579Z,0.20
2022-12-18T09:20:41.623Z,0.30
2022-12-18T09:23:08.751Z,0.30
2022-12-18T09:25:36.176Z,0.30
2022-12-18T09:28:17.339Z,0.20
2022-12-18T09:33:12.702Z,0.30
2022-12-18T09:35:40.172Z,0.20
2022-12-18T09:38:07.223Z,0.28
2022-12-18T09:40:45.970Z,0.30
2022-12-18T09:43:29.015Z,0.30
2022-12-18T09:46:01.681Z,0.30
2022-12-18T09:48:50.856Z,0.30
2022-12-18T09:51:27.100Z,0.30
2022-12-18T09:54:07.297Z,0.28
2022-12-18T09:56:39.728Z,0.20
2022-12-18T09:59:06.665Z,0.20
2022-12-18T10:01:43.239Z,0.20
2022-12-18T10:04:11.929Z,0.20
2022-12-18T10:06:58.778Z,0.30
2022-12-18T10:09:32.027Z,0.20
2022-12-18T10:12:02.906Z,0.20
2022-12-18T10:14:43.928Z,0.30
2022-12-18T10:19:53.058Z,0.20
2022-12-18T10:22:30.183Z,0.20
2022-12-18T10:25:25.503Z,0.22
2022-12-18T10:28:01.040Z,0.20
2022-12-18T10:30:27.901Z,0.20
2022-12-18T10:32:54.810Z,0.20
2022-12-18T10:35:27.443Z,0.20
2022-12-18T10:38:20.273Z,0.20
2022-12-18T10:40:55.648Z,0.20
2022-12-18T10:43:33.718Z,0.20
2022-12-18T10:46:09.707Z,0.20
2022-12-18T10:48:52.524Z,0.20
2022-12-18T10:51:26.854Z,0.20
2022-12-18T10:54:23.607Z,0.20
2022-12-18T10:56:50.579Z,0.20
2022-12-18T10:59:19.103Z,0.20
2022-12-18T11:01:56.199Z,0.20
2022-12-18T11:04:31.644Z,0.20
2022-12-18T11:07:07.465Z,0.20
2022-12-18T11:09:39.189Z,0.22
2022-12-18T11:12:17.633Z,0.20
2022-12-18T11:14:49.225Z,0.20
2022-12-18T11:17:36.196Z,0.20
2022-12-18T11:20:19.773Z,0.20
2022-12-18T11:23:03.604Z,0.20
2022-12-18T11:25:34.131Z,0.20
2022-12-18T11:28:05.035Z,0.20
2022-12-18T11:30:36.505Z,0.20
2022-12-18T11:33:19.749Z,0.20
2022-12-18T11:35:56.793Z,0.20
2022-12-18T11:38:24.651Z,0.20
2022-12-18T11:41:05.764Z,0.20
2022-12-18T11:46:33.127Z,0.20
2022-12-18T11:49:07.329Z,0.20
2022-12-18T11:51:44.652Z,0.20
2022-12-18T11:54:16.295Z,0.20
2022-12-18T11:57:09.952Z,0.20
2022-12-18T12:00:09.952Z,0.20
2022-12-18T12:02:42.528Z,0.20
2022-12-18T12:05:38.992Z,0.20
2022-12-18T12:08:30.821Z,0.20
2022-12-18T12:11:28.177Z,0.20
2022-12-18T12:14:22.645Z,0.20
2022-12-18T12:17:02.297Z,0.20
2022-12-18T12:19:45.570Z,0.20
2022-12-18T12:22:40.926Z,0.20
2022-12-18T12:25:32.410Z,0.20
2022-12-18T12:28:10.713Z,0.20
2022-12-18T12:30:51.949Z,0.20
2022-12-18T12:33:40.964Z,0.20
2022-12-18T12:36:23.551Z,0.20
2022-12-18T12:38:58.557Z,0.20
2022-12-18T12:41:29.310Z,0.20
2022-12-18T12:43:59.762Z,0.20
2022-12-18T12:46:27.834Z,0.20
2022-12-18T12:48:58.396Z,0.20
2022-12-18T12:51:28.902Z,0.20
2022-12-18T12:53:58.696Z,0.20
2022-12-18T12:56:32.685Z,0.20
2022-12-18T12:59:25.370Z,0.20
2022-12-18T13:01:59.728Z,0.20
2022-12-18T13:04:35.949Z,0.20
2022-12-18T13:07:15.398Z,0.20
2022-12-18T13:10:19.280Z,0.20
2022-12-18T13:13:08.942Z,0.20
2022-12-18T13:15:54.634Z,0.20
2022-12-18T13:18:23.198Z,0.20
2022-12-18T13:21:04.117Z,0.20
2022-12-18T13:23:30.612Z,0.20
2022-12-18T13:26:07.387Z,0.20
2022-12-18T13:28:33.828Z,0.20
2022-12-18T13:31:04.259Z,0.20
2022-12-18T13:33:46.913Z,0.20
2022-12-18T13:36:23.709Z,0.20
2022-12-18T13:39:28.921Z,0.20
2022-12-18T13:42:06.648Z,0.20
2022-12-18T13:44:40.861Z,0.20
2022-12-18T13:47:35.977Z,0.20
2022-12-18T13:50:20.668Z,0.20
2022-12-18T13:52:47.491Z,0.22
2022-12-18T13:55:20.742Z,0.20
2022-12-18T13:57:48.099Z,0.20
2022-12-18T14:00:23.683Z,0.20
2022-12-18T14:02:51.666Z,0.20
2022-12-18T14:05:32.139Z,0.20
2022-12-18T14:08:05.753Z,0.20
2022-12-18T14:10:42.602Z,0.20
2022-12-18T14:13:40.975Z,0.20
2022-12-18T14:16:08.306Z,0.20
2022-12-18T14:18:44.820Z,0.20
2022-12-18T14:21:31.222Z,0.20
2022-12-18T14:24:15.087Z,0.20
2022-12-18T14:26:44.109Z,0.20
2022-12-18T14:29:21.651Z,0.20
2022-12-18T14:32:18.133Z,0.20
2022-12-18T14:34:49.392Z,0.20
2022-12-18T14:37:20.732Z,0.20
2022-12-18T14:40:07.310Z,0.20
2022-12-18T14:42:37.576Z,0.20
2022-12-18T14:45:42.164Z,0.20
2022-12-18T14:48:23.687Z,0.25
2022-12-18T14:51:06.451Z,0.20
2022-12-18T14:53:50.538Z,0.20
2022-12-18T14:56:23.191Z,0.20
2022-12-18T14:58:55.302Z,0.20
2022-12-18T15:01:46.150Z,0.20
2022-12-18T15:04:36.654Z,0.20
2022-12-18T15:07:20.270Z,0.20
2022-12-18T15:10:13.372Z,0.20
2022-12-18T15:12:49.110Z,0.20
2022-12-18T15:15:33.899Z,0.20
2022-12-18T15:18:01.765Z,0.20
2022-12-18T15:20:28.756Z,0.20
2022-12-18T15:22:55.432Z,0.20
2022-12-18T15:25:42.329Z,0.20
2022-12-18T15:28:22.493Z,0.20
2022-12-18T15:31:15.137Z,0.20
2022-12-18T15:34:00.515Z,0.20
2022-12-18T15:36:27.236Z,0.20
2022-12-18T15:38:58.905Z,0.20
2022-12-18T15:41:36.696Z,0.20
2022-12-18T15:44:04.545Z,0.25
2022-12-18T15:46:31.472Z,0.20
2022-12-18T15:49:02.382Z,0.20
2022-12-18T15:51:32.061Z,0.20
2022-12-18T15:54:01.584Z,0.20
2022-12-18T15:56:28.364Z,0.20
2022-12-18T15:58:55.125Z,0.20
2022-12-18T16:01:24.103Z,0.30
2022-12-18T16:03:51.038Z,0.20
2022-12-18T16:06:17.623Z,0.20
2022-12-18T16:08:44.105Z,0.25
2022-12-18T16:11:26.565Z,0.20
2022-12-18T16:13:53.139Z,0.20
2022-12-18T16:16:20.035Z,0.20
2022-12-18T16:18:46.595Z,0.20
2022-12-18T16:21:13.119Z,0.20
2022-12-18T16:23:39.985Z,0.20
2022-12-18T16:26:06.852Z,0.20
2022-12-18T16:28:33.375Z,0.20
2022-12-18T16:31:00.458Z,0.20
2022-12-18T16:33:27.021Z,0.28
2022-12-18T16:35:54.245Z,0.20
2022-12-18T16:38:20.898Z,0.20
2022-12-18T16:40:47.457Z,0.20
2022-12-18T16:43:13.914Z,0.20
2022-12-18T16:45:40.454Z,0.20
2022-12-18T16:48:09.805Z,0.20
2022-12-18T16:50:36.294Z,0.20
2022-12-18T16:53:02.901Z,0.20
2022-12-18T16:55:29.396Z,0.28
2022-12-18T16:57:55.926Z,0.25
2022-12-18T17:00:22.487Z,0.30
2022-12-18T17:02:49.259Z,0.20
2022-12-18T17:05:15.869Z,0.20
2022-12-18T17:07:42.379Z,0.20
2022-12-18T17:10:09.363Z,0.28
2022-12-18T17:12:36.644Z,0.20
2022-12-18T17:15:03.355Z,0.20
2022-12-18T17:17:29.944Z,0.20
2022-12-18T17:19:56.566Z,0.30
2022-12-18T17:22:23.153Z,0.20
2022-12-18T17:24:49.684Z,0.20
2022-12-18T17:27:16.177Z,0.30
2022-12-18T17:29:47.249Z,0.20
2022-12-18T17:32:15.699Z,0.25
2022-12-18T17:34:42.226Z,0.30
2022-12-18T17:37:09.261Z,0.22
2022-12-18T17:39:36.144Z,0.20
2022-12-18T17:42:02.746Z,0.20
2022-12-18T17:44:29.448Z,0.20
2022-12-18T17:46:55.981Z,0.30
2022-12-18T17:49:22.607Z,0.30
2022-12-18T17:51:49.149Z,0.20
2022-12-18T17:54:15.714Z,0.20
2022-12-18T17:56:42.543Z,0.20
2022-12-18T17:59:09.453Z,0.30
2022-12-18T18:01:41.108Z,0.30
2022-12-18T18:04:11.037Z,0.20
2022-12-18T18:06:38.883Z,0.20
2022-12-18T18:09:06.655Z,0.28
2022-12-18T18:11:39.639Z,0.20
2022-12-18T18:14:18.527Z,0.20
2022-12-18T18:16:47.662Z,0.25
2022-12-18T18:19:20.694Z,0.20
2022-12-18T18:21:48.823Z,0.20
2022-12-18T18:24:18.358Z,0.30
2022-12-18T18:26:45.304Z,0.20
2022-12-18T18:29:15.696Z,0.20
2022-12-18T18:31:42.344Z,0.30
2022-12-18T18:34:43.214Z,0.20
2022-12-18T18:37:10.626Z,0.20
2022-12-18T18:39:37.207Z,0.20
2022-12-18T18:42:03.937Z,0.30
2022-12-18T18:44:30.635Z,0.20
2022-12-18T18:46:58.578Z,0.25
2022-12-18T18:49:26.116Z,0.20
2022-12-18T18:51:53.489Z,0.20
2022-12-18T18:54:20.697Z,0.20
2022-12-18T18:57:20.405Z,0.22
2022-12-18T18:59:36.081Z,0.20
2022-12-18T19:02:04.682Z,0.20
2022-12-18T19:04:34.743Z,0.20
2022-12-18T19:07:01.703Z,0.20
2022-12-18T19:09:28.696Z,0.20
2022-12-18T19:11:56.882Z,0.20
2022-12-18T19:14:24.001Z,0.20
2022-12-18T19:16:50.708Z,0.20
2022-12-18T19:19:17.362Z,0.20
2022-12-18T19:21:43.962Z,0.20
2022-12-18T19:24:10.539Z,0.20
2022-12-18T19:26:37.638Z,0.20
2022-12-18T19:29:07.059Z,0.20
2022-12-18T19:31:36.525Z,0.20
2022-12-18T19:34:04.879Z,0.20
2022-12-18T19:36:33.136Z,0.20
2022-12-18T19:39:01.421Z,0.20
2022-12-18T19:41:31.399Z,0.20
2022-12-18T19:43:59.842Z,0.20
2022-12-18T19:46:26.629Z,0.20
2022-12-18T19:48:53.391Z,0.20
2022-12-18T19:51:24.279Z,0.20
2022-12-18T19:53:56.643Z,0.20
2022-12-18T19:56:27.239Z,0.30
2022-12-18T19:58:54.886Z,0.20
2022-12-18T20:01:23.513Z,0.20
2022-12-18T20:03:52.765Z,0.20
2022-12-18T20:06:28.223Z,0.25
2022-12-18T20:09:00.053Z,0.20
2022-12-18T20:11:31.214Z,0.20
2022-12-18T20:13:58.331Z,0.30
2022-12-18T20:16:24.938Z,0.20
2022-12-18T20:18:52.423Z,0.20
2022-12-18T20:21:19.618Z,0.20
2022-12-18T20:23:46.469Z,0.20
2022-12-18T20:26:15.716Z,0.20
2022-12-18T20:28:42.449Z,0.28
2022-12-18T20:31:10.444Z,0.30
2022-12-18T20:33:40.610Z,0.22
2022-12-18T20:36:12.375Z,0.20
2022-12-18T20:38:39.519Z,0.20
2022-12-18T20:41:11.895Z,0.30
2022-12-18T20:43:39.160Z,0.20
2022-12-18T20:46:08.274Z,0.20
2022-12-18T20:48:35.853Z,0.20
2022-12-18T20:51:05.802Z,0.20
2022-12-18T20:53:33.761Z,0.20
2022-12-18T20:56:00.545Z,0.30
2022-12-18T20:58:27.286Z,0.20
2022-12-18T21:01:08.129Z,0.30
2022-12-18T21:03:39.481Z,0.20
2022-12-18T21:06:07.045Z,0.20
2022-12-18T21:08:33.728Z,0.20
2022-12-18T21:11:15.427Z,0.20
2022-12-18T21:13:43.863Z,0.20
2022-12-18T21:16:10.447Z,0.20
2022-12-18T21:18:37.574Z,0.20
2022-12-18T21:21:04.456Z,0.20
2022-12-18T21:23:31.021Z,0.20
2022-12-18T21:26:17.331Z,0.20
2022-12-18T21:28:43.812Z,0.20
2022-12-18T21:31:10.660Z,0.20
2022-12-18T21:33:38.587Z,0.20
2022-12-18T21:36:06.465Z,0.30
2022-12-18T21:38:33.608Z,0.30
2022-12-18T21:41:00.124Z,0.20
2022-12-18T21:43:26.760Z,0.30
2022-12-18T21:45:53.275Z,0.20
2022-12-18T21:48:19.799Z,0.20
2022-12-18T21:50:46.326Z,0.22
2022-12-18T21:53:12.858Z,0.30
2022-12-18T21:55:39.324Z,0.20
2022-12-18T21:58:05.815Z,0.30
2022-12-18T22:00:32.306Z,0.22
2022-12-18T22:03:17.460Z,0.20
2022-12-18T22:05:45.849Z,0.20
2022-12-18T22:08:14.009Z,0.30
2022-12-18T22:10:40.837Z,0.20
2022-12-18T22:13:07.737Z,0.20
2022-12-18T22:15:34.401Z,0.30
2022-12-18T22:18:01.105Z,0.20
2022-12-18T22:20:29.333Z,0.20
2022-12-18T22:22:56.849Z,0.20
2022-12-18T22:25:23.412Z,0.20
2022-12-18T22:27:49.907Z,0.30
2022-12-18T22:30:16.424Z,0.20
2022-12-18T22:32:42.980Z,0.20
2022-12-18T22:35:15.552Z,0.20
2022-12-18T22:37:42.588Z,0.20
2022-12-18T22:40:22.242Z,0.20
2022-12-18T22:42:50.657Z,0.20
2022-12-18T22:45:19.418Z,0.20
2022-12-18T22:47:46.014Z,0.20
2022-12-18T22:50:15.514Z,0.20
2022-12-18T22:52:42.110Z,0.20
2022-12-18T22:55:09.888Z,0.20
2022-12-18T22:57:36.574Z,0.20
2022-12-18T23:00:06.027Z,0.20
2022-12-18T23:02:32.799Z,0.20
2022-12-18T23:04:59.445Z,0.20
2022-12-18T23:07:25.999Z,0.20
2022-12-18T23:09:57.385Z,0.20
2022-12-18T23:12:27.675Z,0.20
2022-12-18T23:14:54.355Z,0.20
2022-12-18T23:17:20.859Z,0.20
2022-12-18T23:19:49.332Z,0.20
2022-12-18T23:22:16.925Z,0.20
2022-12-18T23:24:43.497Z,0.20
2022-12-18T23:27:18.387Z,0.20
2022-12-18T23:29:45.016Z,0.20
2022-12-18T23:32:12.711Z,0.20
2022-12-18T23:34:39.331Z,0.20
2022-12-18T23:37:05.840Z,0.20
2022-12-18T23:39:32.384Z,0.20
2022-12-18T23:41:59.348Z,0.28
2022-12-18T23:44:26.143Z,0.20
2022-12-18T23:46:53.068Z,0.20
2022-12-18T23:49:19.696Z,0.20
2022-12-18T23:51:46.158Z,0.20
2022-12-18T23:54:12.634Z,0.20
2022-12-18T23:56:39.215Z,0.20
2022-12-18T23:59:05.683Z,0.20
